Montgomery Regional (Dannelly Field) Airport
KMGM : now visible

Airfield :











YOU CAN JOIN US ON...

 
LOGIN :

Register | Disclaimer

   EN    FR    IT 

 









Legend :    VFR   Marginal VFR   IFR   Intensive IFR   Very Intensive IFR
Visi :
Ceiling :
>= 8 km
>= 3000ft
5 to 8 km
1000 to 3000 ft
1500m to 5 km
500 to 1000 ft
800 to 1500m
200 to 500 ft
< 800m
< 200 ft
Symbols :   Thunderstorms  Fog  Heavy snow  Heavy precipitations  Wind > 20 kt






- Airport Elevation : 221 ft
- IATA code : MGM


KMGM - Montgomery Regional (Dannelly Field)

CURRENT METAR :
  • 231353Z 09003KT 10SM CLR 14/09 A3024 RMK AO2 SLP240 T01390094

EXPIRED METARs :
  • 231253Z 00000KT 10SM CLR 11/08 A3024 RMK AO2 SLP239 T01110083
  • 231153Z 35003KT 10SM CLR 08/06 A3022 RMK AO2 SLP234 T00780061 10089 20050 53016
  • 231053Z AUTO 00000KT 10SM CLR 06/04 A3020 RMK AO2 SLP225 T00560044
  • 230953Z AUTO 00000KT 10SM CLR 06/05 A3019 RMK AO2 SLP223 T00560050
  • 230853Z AUTO 00000KT 6SM BR CLR 06/05 A3018 RMK AO2 SLP219 T00610050 55000

TAF KMGM
Valid from the 23 at 12:00 until the 24 at 12:00 UTC


231120Z 2312/2412 VRB03KT P6SM SKC
FM231500 18007KT P6SM SKC
FM240100 18003KT P6SM SKC
KZTL FIR / North America



MET'MAP, your aeronautical weather chart ! - Copyright ORBIFLY December 2007 - Disclaimer

ORBIFLY MET'MAP TEAM :

Programming & Development : Alexandra Zaïnal
Original concept : Baudouin d'Aumeries
Technical & hardware support : Manuel Goepfert
Assistance : Marc-Olivier Méhu




SOURCES & CREDITS :

   NOAA       Earth
Advisory